Terminal Aerodrome Forecast
Issued by NWS

Home | Current Version | Previous Version | Graphics & Text | Print | Product List | Glossary On
Versions: 1 2 3 4 5 6 7 8 9 10 11 12 13 14 15 16 17 18 19 20 21 22 23 24 25 26 27 28 29 30 31 32 33 34 35 36 37 38 39 40 41 42 43 44 45 46 47 48 49 50
000
FTUS43 KLOT 260300 AAA
TAFGYY
TAF AMD
KGYY 260308Z 2603/2624 19004KT P6SM SCT120 BKN250
     FM260500 21004KT 6SM BR FEW120 SCT250
     FM261100 27005KT 5SM SHRA BR VCTS FEW010CB SCT020 BKN040
     FM261500 36008KT P6SM VCSH SCT040 BKN250
     FM261700 02007KT P6SM SCT040 BKN250
     FM261900 03010KT P6SM SCT040 BKN250=

USA.gov is the U.S. government's official web portal to all federal, state and local government web resources and services.